Time;durP1;ratioP1;P1;durP2;ratioP2;P2;SDS_P1;SDS_P2;PMS_P1;PMS_P2;Temp;Humidity;BMP_temperature;BMP_pressure;BME280_temperature;BME280_humidity;BME280_pressure;Samples;Min_cycle;Max_cycle;Signal;HPM_P1;HPM_P2
2023/06/03 00:01:22;;;;;;;1.25;0.95;;;;;;;15.56;60.28;99610.16;5054843;28;20060;-63
2023/06/03 00:03:51;;;;;;;1.02;0.70;;;;;;;15.51;60.35;99608.53;5054193;28;20106;-63
2023/06/03 00:06:22;;;;;;;0.77;0.77;;;;;;;15.50;60.31;99610.25;5054485;28;20045;-63
2023/06/03 00:08:51;;;;;;;0.80;0.80;;;;;;;15.49;60.43;99608.59;5053212;28;20049;-63
2023/06/03 00:11:20;;;;;;;0.85;0.77;;;;;;;15.46;60.86;99605.22;5054604;28;20128;-63
2023/06/03 00:13:49;;;;;;;0.87;0.73;;;;;;;15.45;60.65;99612.13;5054363;28;20055;-63
2023/06/03 00:16:17;;;;;;;0.50;0.50;;;;;;;15.44;60.23;99610.38;5054034;28;20564;-63
2023/06/03 00:18:46;;;;;;;0.83;0.83;;;;;;;15.50;60.41;99620.53;5054253;28;20056;-63
2023/06/03 00:21:16;;;;;;;0.70;0.70;;;;;;;15.50;60.48;99620.53;5054421;28;20779;-64
2023/06/03 00:23:48;;;;;;;1.65;1.45;;;;;;;15.33;60.47;99596.91;5054476;28;20495;-64
2023/06/03 00:26:17;;;;;;;0.77;0.77;;;;;;;15.42;60.71;99614.72;5053786;28;20110;-64
2023/06/03 00:28:52;;;;;;;0.60;0.60;;;;;;;15.47;60.75;99618.06;5054341;28;20045;-62
2023/06/03 00:31:21;;;;;;;1.77;0.73;;;;;;;15.50;60.30;99615.41;5054275;28;20114;-63
2023/06/03 00:33:49;;;;;;;1.08;0.82;;;;;;;15.46;60.97;99611.22;5052786;28;20053;-63
2023/06/03 00:36:18;;;;;;;0.73;0.73;;;;;;;15.41;60.62;99615.56;5053782;28;20049;-63
2023/06/03 00:38:49;;;;;;;1.20;0.80;;;;;;;15.32;60.77;99605.50;5054058;28;20128;-63
2023/06/03 00:41:18;;;;;;;5.45;0.80;;;;;;;15.34;60.92;99624.31;5052734;28;20067;-63
2023/06/03 00:43:47;;;;;;;1.35;0.65;;;;;;;15.32;61.00;99626.06;5052858;28;20455;-63
2023/06/03 00:46:18;;;;;;;0.68;0.68;;;;;;;15.28;61.19;99616.72;5053653;28;20132;-64
2023/06/03 00:48:50;;;;;;;5.78;1.33;;;;;;;15.25;61.25;99619.34;5053629;28;20056;-63
2023/06/03 00:51:19;;;;;;;2.28;0.93;;;;;;;15.17;61.11;99601.50;5052498;28;20045;-64
2023/06/03 00:53:50;;;;;;;0.73;0.68;;;;;;;15.17;61.42;99616.09;5053662;28;20052;-63
2023/06/03 00:56:20;;;;;;;0.60;0.60;;;;;;;15.22;61.21;99616.84;5052324;28;20045;-63
2023/06/03 00:58:50;;;;;;;0.52;0.52;;;;;;;15.20;61.14;99626.31;5053792;28;20063;-63
2023/06/03 01:01:19;;;;;;;1.85;1.38;;;;;;;15.19;61.58;99629.75;5053531;28;20044;-63
2023/06/03 01:03:49;;;;;;;0.60;0.60;;;;;;;15.14;61.27;99623.88;5053696;28;20072;-63
2023/06/03 01:06:27;;;;;;;0.95;0.93;;;;;;;15.13;61.09;99624.75;5053313;28;20044;-64
2023/06/03 01:09:05;;;;;;;0.70;0.70;;;;;;;15.07;61.30;99619.75;5053382;28;20051;-63
2023/06/03 01:11:43;;;;;;;1.45;1.25;;;;;;;14.98;61.50;99609.63;5053494;28;20056;-63
2023/06/03 01:14:19;;;;;;;1.55;1.40;;;;;;;14.98;61.95;99614.75;5053696;28;20049;-63
2023/06/03 01:16:52;;;;;;;0.50;0.50;;;;;;;14.92;61.73;99617.47;5053027;28;20502;-63
2023/06/03 01:19:36;;;;;;;0.68;0.68;;;;;;;14.89;62.01;99625.22;5053359;28;20044;-63
2023/06/03 01:22:08;;;;;;;0.80;0.80;;;;;;;14.86;61.60;99623.56;5053386;28;20056;-63
2023/06/03 01:24:40;;;;;;;1.98;1.58;;;;;;;14.81;61.60;99630.50;5052908;28;20049;-62
2023/06/03 01:27:10;;;;;;;0.50;0.50;;;;;;;14.76;61.78;99622.88;5053342;28;20052;-63
2023/06/03 01:29:39;;;;;;;0.75;0.75;;;;;;;14.75;61.71;99628.91;5053201;28;20049;-63
2023/06/03 01:32:12;;;;;;;3.00;1.23;;;;;;;14.80;61.97;99625.41;5053191;28;20056;-63
2023/06/03 01:34:46;;;;;;;0.80;0.80;;;;;;;14.76;61.45;99615.19;5053271;28;20045;-63
2023/06/03 01:37:15;;;;;;;0.98;0.82;;;;;;;14.72;61.43;99618.69;5052179;28;20064;-63
2023/06/03 01:39:46;;;;;;;6.13;0.70;;;;;;;14.52;61.75;99586.50;5053462;28;20057;-63
2023/06/03 01:42:15;;;;;;;0.60;0.60;;;;;;;14.61;61.79;99615.44;5051946;28;20045;-63
2023/06/03 01:44:44;;;;;;;0.60;0.60;;;;;;;14.59;61.75;99617.19;5053342;28;20045;-63
2023/06/03 01:47:13;;;;;;;0.97;0.97;;;;;;;14.60;61.39;99613.78;5053051;28;20048;-63
2023/06/03 01:49:42;;;;;;;0.53;0.50;;;;;;;14.63;60.96;99618.84;5051823;28;20079;-63
2023/06/03 01:52:10;;;;;;;0.60;0.60;;;;;;;14.54;60.97;99618.19;5053070;28;20075;-63
2023/06/03 01:54:40;;;;;;;2.72;1.30;;;;;;;14.57;61.02;99613.81;5052892;28;20053;-63
2023/06/03 01:57:11;;;;;;;0.93;0.77;;;;;;;14.52;61.08;99619.91;5052965;28;20045;-63
2023/06/03 01:59:41;;;;;;;0.82;0.70;;;;;;;14.48;61.01;99608.84;5053033;28;20051;-62
2023/06/03 02:02:11;;;;;;;0.60;0.60;;;;;;;14.47;61.26;99627.69;5051708;28;20041;-63
2023/06/03 02:04:39;;;;;;;0.60;0.60;;;;;;;14.47;60.76;99632.81;5052263;28;20077;-63
2023/06/03 02:07:08;;;;;;;0.68;0.68;;;;;;;14.46;60.75;99636.28;5051694;28;20091;-63
2023/06/03 02:09:37;;;;;;;1.20;0.87;;;;;;;14.37;60.43;99633.84;5052037;28;20483;-63
2023/06/03 02:12:07;;;;;;;0.50;0.50;;;;;;;14.33;60.95;99629.66;5052778;28;20049;-63
2023/06/03 02:14:39;;;;;;;0.70;0.70;;;;;;;14.29;60.81;99622.84;5052817;28;20048;-63
2023/06/03 02:17:11;;;;;;;1.20;0.93;;;;;;;14.25;60.55;99626.34;5052963;28;20041;-63
2023/06/03 02:19:41;;;;;;;1.40;0.98;;;;;;;14.26;60.43;99619.47;5051600;28;20048;-63
2023/06/03 02:22:10;;;;;;;1.60;0.70;;;;;;;14.28;60.43;99640.81;5051492;28;20128;-63
2023/06/03 02:24:39;;;;;;;1.42;0.95;;;;;;;14.16;59.97;99636.75;5053075;28;20425;-63
2023/06/03 02:27:08;;;;;;;1.75;0.93;;;;;;;14.15;60.44;99639.34;5051588;28;20394;-63
2023/06/03 02:29:40;;;;;;;0.40;0.40;;;;;;;14.11;60.14;99641.09;5054853;28;20041;-63
2023/06/03 02:32:09;;;;;;;0.35;0.35;;;;;;;14.05;59.92;99644.63;5055050;28;20124;-63
2023/06/03 02:34:38;;;;;;;0.60;0.60;;;;;;;14.07;59.80;99649.72;5054970;28;20106;-63
2023/06/03 02:37:07;;;;;;;1.37;1.20;;;;;;;14.00;59.60;99643.84;5056065;28;20049;-63
2023/06/03 02:39:36;;;;;;;0.30;0.30;;;;;;;14.03;59.71;99650.66;5055314;28;20057;-63
2023/06/03 02:42:05;;;;;;;0.57;0.57;;;;;;;13.97;59.98;99661.00;5054894;28;20141;-63
2023/06/03 02:44:34;;;;;;;0.50;0.50;;;;;;;13.89;59.63;99657.72;5054863;28;20147;-63
2023/06/03 02:47:05;;;;;;;0.50;0.50;;;;;;;13.85;59.82;99663.72;5054809;28;20037;-63
2023/06/03 02:49:34;;;;;;;0.60;0.60;;;;;;;13.57;60.23;99629.94;5054757;28;20052;-63
2023/06/03 02:52:03;;;;;;;0.55;0.55;;;;;;;13.66;59.96;99664.84;5055805;28;20056;-63
2023/06/03 02:54:32;;;;;;;0.85;0.80;;;;;;;13.55;60.13;99666.72;5055815;28;20049;-63
2023/06/03 02:57:01;;;;;;;0.75;0.75;;;;;;;13.56;60.11;99669.25;5054596;28;20052;-63
2023/06/03 02:59:30;;;;;;;0.70;0.70;;;;;;;13.41;60.25;99670.28;5054550;28;20049;-63
2023/06/03 03:01:58;;;;;;;0.85;0.80;;;;;;;13.33;60.39;99667.00;5054479;28;20041;-63
2023/06/03 03:04:33;;;;;;;0.60;0.60;;;;;;;13.27;60.21;99679.88;5055757;28;20414;-63
2023/06/03 03:07:05;;;;;;;1.33;1.25;;;;;;;13.29;60.33;99680.69;5054406;28;20045;-63
2023/06/03 03:09:34;;;;;;;0.50;0.50;;;;;;;13.33;60.02;99682.38;5055683;28;20048;-63
2023/06/03 03:12:03;;;;;;;;;;;;;;;13.36;60.02;99687.44;5071374;28;20102;-63
2023/06/03 03:14:33;;;;;;;0.50;0.50;;;;;;;13.50;59.57;99689.00;5055644;28;19974;-63
2023/06/03 03:17:02;;;;;;;0.40;0.40;;;;;;;13.54;59.45;99688.09;5054212;28;20056;-63
2023/06/03 03:19:33;;;;;;;0.95;0.88;;;;;;;13.48;58.98;99688.19;5054227;28;20129;-63
2023/06/03 03:22:03;;;;;;;0.40;0.40;;;;;;;13.51;58.83;99690.72;5054156;28;20140;-63
2023/06/03 03:24:32;;;;;;;0.40;0.40;;;;;;;13.43;58.62;99676.28;5054118;28;20068;-63
2023/06/03 03:27:01;;;;;;;0.60;0.60;;;;;;;13.51;58.77;99700.97;5055217;28;20286;-62
2023/06/03 03:29:33;;;;;;;0.38;0.38;;;;;;;13.54;58.59;99706.03;5054300;28;20049;-62
2023/06/03 03:32:08;;;;;;;0.68;0.68;;;;;;;13.64;57.99;99703.34;5055221;28;20124;-63
2023/06/03 03:34:44;;;;;;;0.88;0.77;;;;;;;13.66;57.87;99706.75;5054046;28;20402;-63
2023/06/03 03:37:14;;;;;;;0.40;0.40;;;;;;;13.72;58.00;99704.13;5055015;28;20059;-63
2023/06/03 03:39:47;;;;;;;0.40;0.40;;;;;;;13.69;57.71;99705.88;5054925;28;20094;-63
2023/06/03 03:42:16;;;;;;;0.50;0.50;;;;;;;13.72;57.66;99711.81;5055208;28;20529;-63
2023/06/03 03:44:45;;;;;;;0.40;0.40;;;;;;;13.75;57.94;99721.19;5053604;28;20052;-63
2023/06/03 03:47:22;;;;;;;0.63;0.63;;;;;;;13.76;58.01;99722.88;5054824;28;20044;-63
2023/06/03 03:49:53;;;;;;;0.95;0.90;;;;;;;13.77;57.75;99722.00;5054884;28;20418;-63
2023/06/03 03:52:30;;;;;;;0.43;0.43;;;;;;;13.79;57.98;99727.97;5053475;28;20048;-63
2023/06/03 03:55:01;;;;;;;0.70;0.70;;;;;;;13.78;58.16;99726.25;5053735;28;20155;-63
2023/06/03 03:57:32;;;;;;;1.25;0.77;;;;;;;13.69;57.89;99728.94;5053624;28;20059;-63
2023/06/03 04:00:00;;;;;;;;;;;;;;;13.81;57.78;99746.75;5053832;28;20063;-63
2023/06/03 04:02:36;;;;;;;0.47;0.47;;;;;;;13.88;57.83;99748.38;5054537;28;19944;-63
2023/06/03 04:05:08;;;;;;;1.10;1.00;;;;;;;13.79;57.62;99753.63;5053476;28;20394;-63
2023/06/03 04:07:38;;;;;;;2.15;0.60;;;;;;;13.84;57.08;99746.72;5054459;28;20084;-63
2023/06/03 04:10:11;;;;;;;0.80;0.80;;;;;;;13.85;57.01;99743.25;5053787;28;20106;-63
2023/06/03 04:12:39;;;;;;;0.47;0.47;;;;;;;14.00;56.97;99748.19;5054587;28;20041;-63
2023/06/03 04:15:12;;;;;;;0.52;0.52;;;;;;;14.09;56.79;99742.94;5053318;28;20418;-63
2023/06/03 04:17:41;;;;;;;0.40;0.40;;;;;;;14.07;56.54;99744.69;5053286;28;20381;-63
2023/06/03 04:20:34;;;;;;;0.40;0.40;;;;;;;14.21;56.72;99742.75;5053124;28;20051;-62
2023/06/03 04:23:06;;;;;;;0.50;0.50;;;;;;;14.05;56.29;99723.31;5052961;28;20059;-63
2023/06/03 04:25:35;;;;;;;0.30;0.30;;;;;;;14.21;56.38;99747.91;5052888;28;20045;-63
2023/06/03 04:28:04;;;;;;;0.88;0.70;;;;;;;14.37;56.08;99764.81;5054078;28;20045;-63
2023/06/03 04:30:32;;;;;;;0.40;0.40;;;;;;;14.36;56.01;99758.00;5052796;28;20049;-63
2023/06/03 04:33:01;;;;;;;0.40;0.40;;;;;;;14.35;55.94;99750.31;5052840;28;20499;-63
2023/06/03 04:35:34;;;;;;;0.40;0.40;;;;;;;14.38;56.20;99753.69;5053937;28;20041;-63
2023/06/03 04:38:03;;;;;;;0.40;0.40;;;;;;;14.53;55.96;99766.28;5053030;28;20491;-62
2023/06/03 04:40:32;;;;;;;0.88;0.85;;;;;;;14.60;55.57;99757.63;5054070;28;20094;-63
2023/06/03 04:43:03;;;;;;;1.65;1.15;;;;;;;14.72;55.49;99761.72;5053827;28;20052;-63
2023/06/03 04:45:35;;;;;;;0.40;0.40;;;;;;;14.82;55.36;99757.25;5053033;28;20560;-63
2023/06/03 04:48:05;;;;;;;0.40;0.40;;;;;;;15.02;54.58;99762.94;5053612;28;20048;-63
2023/06/03 04:50:37;;;;;;;0.50;0.50;;;;;;;15.27;54.60;99766.75;5052035;28;20076;-63
2023/06/03 04:53:09;;;;;;;3.20;0.70;;;;;;;15.39;54.24;99772.50;5052531;28;20532;-62
2023/06/03 04:55:43;;;;;;;0.40;0.40;;;;;;;15.41;54.10;99769.91;5053536;28;20045;-63
2023/06/03 04:58:19;;;;;;;0.65;0.65;;;;;;;15.39;53.76;99776.81;5053575;28;20041;-63
2023/06/03 05:00:51;;;;;;;0.50;0.50;;;;;;;15.48;53.40;99766.38;5053846;28;20045;-63
2023/06/03 05:03:20;;;;;;;;;;;;;;;15.54;53.58;99786.84;5054231;28;20040;-63
2023/06/03 05:05:52;;;;;;;2.25;0.60;;;;;;;15.56;53.45;99787.66;5052515;28;19927;-63
2023/06/03 05:08:23;;;;;;;1.75;1.40;;;;;;;15.74;52.92;99783.88;5052082;28;20090;-63
2023/06/03 05:10:53;;;;;;;0.50;0.50;;;;;;;15.95;52.75;99786.88;5053744;28;20132;-63
2023/06/03 05:13:22;;;;;;;0.50;0.50;;;;;;;16.03;51.65;99784.97;5052526;28;20483;-63
2023/06/03 05:15:51;;;;;;;1.08;0.82;;;;;;;16.15;51.43;99783.03;5052081;28;20044;-63
2023/06/03 05:18:20;;;;;;;0.80;0.80;;;;;;;16.12;51.23;99788.25;5051993;28;20048;-63
2023/06/03 05:20:50;;;;;;;1.13;1.00;;;;;;;16.09;50.77;99789.16;5053597;28;20099;-63
2023/06/03 05:23:20;;;;;;;0.98;0.98;;;;;;;16.04;49.94;99784.09;5053340;28;20278;-63
2023/06/03 05:25:50;;;;;;;0.82;0.75;;;;;;;16.22;49.83;99790.56;5053139;28;20457;-63
2023/06/03 05:28:19;;;;;;;0.95;0.95;;;;;;;16.52;49.70;99783.91;5051829;28;20041;-63
2023/06/03 05:30:48;;;;;;;0.70;0.70;;;;;;;16.67;49.33;99784.44;5052095;28;20103;-63
2023/06/03 05:33:26;;;;;;;0.43;0.43;;;;;;;16.78;49.48;99786.72;5053196;28;20045;-63
2023/06/03 05:36:00;;;;;;;0.50;0.50;;;;;;;16.84;49.25;99791.75;5052102;28;20072;-63
2023/06/03 05:38:30;;;;;;;0.50;0.50;;;;;;;16.88;48.32;99795.94;5051807;28;20041;-63
2023/06/03 05:41:03;;;;;;;0.50;0.50;;;;;;;16.86;48.30;99802.88;5051977;28;20132;-63
2023/06/03 05:43:34;;;;;;;0.85;0.80;;;;;;;16.56;47.52;99762.34;5052254;28;20049;-63
2023/06/03 05:46:04;;;;;;;0.68;0.68;;;;;;;16.70;47.86;99796.38;5053101;28;20052;-63
2023/06/03 05:48:33;;;;;;;0.50;0.50;;;;;;;16.78;47.91;99797.03;5052955;28;20090;-63
2023/06/03 05:51:08;;;;;;;0.80;0.80;;;;;;;16.98;47.63;99806.88;5053066;28;20056;-63
2023/06/03 05:53:43;;;;;;;0.32;0.32;;;;;;;17.01;47.34;99776.69;5052088;28;20061;-63
2023/06/03 05:56:18;;;;;;;0.35;0.35;;;;;;;17.39;47.26;99804.09;5053133;28;20052;-64
2023/06/03 05:58:47;;;;;;;0.65;0.50;;;;;;;17.50;46.88;99803.78;5053202;28;20136;-63
2023/06/03 06:01:17;;;;;;;0.70;0.70;;;;;;;17.15;46.54;99776.34;5053027;28;20414;-63
2023/06/03 06:03:46;;;;;;;0.90;0.82;;;;;;;17.25;46.31;99812.19;5055600;28;20111;-64
2023/06/03 06:06:17;;;;;;;0.40;0.40;;;;;;;17.32;46.36;99812.88;5055935;28;20049;-63
2023/06/03 06:08:46;;;;;;;0.55;0.55;;;;;;;17.36;46.72;99820.50;5056570;28;20587;-63
2023/06/03 06:11:16;;;;;;;;;;;;;;;17.32;46.44;99818.88;5057029;28;20053;-63
2023/06/03 06:13:45;;;;;;;0.50;0.50;;;;;;;17.30;46.32;99805.16;5055622;28;20286;-64
2023/06/03 06:16:15;;;;;;;0.50;0.50;;;;;;;17.36;46.54;99820.50;5056691;28;20045;-64
2023/06/03 06:18:44;;;;;;;0.47;0.47;;;;;;;17.47;46.42;99827.13;5056816;28;20067;-63
2023/06/03 06:21:14;;;;;;;0.50;0.50;;;;;;;17.68;46.27;99831.75;5055228;28;20298;-63
2023/06/03 06:23:46;;;;;;;0.70;0.70;;;;;;;17.72;46.23;99808.38;5055228;28;20332;-63
2023/06/03 06:26:16;;;;;;;0.43;0.43;;;;;;;17.99;45.85;99817.09;5069557;28;20080;-64
2023/06/03 06:28:46;;;;;;;0.40;0.40;;;;;;;18.07;45.69;99828.03;5056278;28;20052;-63
2023/06/03 06:31:19;;;;;;;0.43;0.43;;;;;;;18.13;45.65;99834.78;5056231;28;20069;-64
2023/06/03 06:33:52;;;;;;;0.40;0.40;;;;;;;17.96;45.69;99833.53;5055290;28;20060;-63
2023/06/03 06:36:31;;;;;;;0.40;0.40;;;;;;;18.11;45.72;99837.41;5054831;28;20057;-63
2023/06/03 06:39:21;;;;;;;0.80;0.75;;;;;;;18.07;45.62;99833.19;5056017;28;20098;-63
2023/06/03 06:41:50;;;;;;;0.60;0.60;;;;;;;18.23;45.69;99837.06;5055217;28;20045;-64
2023/06/03 06:44:19;;;;;;;0.52;0.52;;;;;;;18.36;45.53;99838.38;5054919;28;20079;-64
2023/06/03 06:46:55;;;;;;;;;;;;;;;18.53;45.07;99837.88;5055486;28;20056;-63
2023/06/03 06:49:24;;;;;;;0.77;0.73;;;;;;;18.43;45.08;99834.69;5054667;28;19936;-63
2023/06/03 06:51:55;;;;;;;0.88;0.88;;;;;;;18.25;45.48;99831.81;5055019;28;20048;-63
2023/06/03 06:54:25;;;;;;;1.05;0.95;;;;;;;18.33;45.93;99833.28;5054887;28;20049;-63
2023/06/03 06:56:54;;;;;;;1.20;1.10;;;;;;;18.59;45.50;99830.81;5054479;28;20566;-64
2023/06/03 06:59:23;;;;;;;0.53;0.53;;;;;;;18.74;45.39;99838.06;5054586;28;20048;-64
2023/06/03 07:01:52;;;;;;;0.85;0.80;;;;;;;18.80;45.05;99833.59;5054820;28;20394;-64
2023/06/03 07:04:21;;;;;;;0.50;0.50;;;;;;;18.83;44.78;99818.00;5054343;28;20056;-64
2023/06/03 07:06:50;;;;;;;0.90;0.90;;;;;;;18.82;44.73;99827.50;5055648;28;20041;-64
2023/06/03 07:09:20;;;;;;;0.60;0.55;;;;;;;18.97;45.13;99841.69;5054662;28;20045;-63
2023/06/03 07:11:50;;;;;;;2.17;0.95;;;;;;;18.99;44.94;99842.47;5054232;28;20057;-63
2023/06/03 07:14:19;;;;;;;0.40;0.40;;;;;;;19.03;45.15;99847.50;5053334;28;20103;-63
2023/06/03 07:16:49;;;;;;;0.50;0.50;;;;;;;18.94;45.21;99846.94;5055361;28;20064;-63
2023/06/03 07:19:19;;;;;;;0.80;0.80;;;;;;;18.89;45.09;99822.97;5055301;28;20747;-64
2023/06/03 07:21:52;;;;;;;0.60;0.60;;;;;;;19.10;44.81;99848.97;5054165;28;20041;-63
2023/06/03 07:24:22;;;;;;;0.50;0.50;;;;;;;19.23;45.09;99854.59;5053910;28;20136;-64
2023/06/03 07:26:52;;;;;;;;;;;;;;;19.38;45.08;99859.31;5055392;28;20057;-63
2023/06/03 07:29:21;;;;;;;0.57;0.55;;;;;;;19.45;45.16;99855.63;5054226;28;19967;-63
2023/06/03 07:31:50;;;;;;;0.47;0.47;;;;;;;19.71;45.51;99852.97;5053865;28;20556;-64
2023/06/03 07:34:23;;;;;;;0.60;0.60;;;;;;;19.87;44.63;99855.84;5054949;28;20402;-64
2023/06/03 07:36:58;;;;;;;0.70;0.70;;;;;;;19.82;44.31;99856.03;5054015;28;20079;-64
2023/06/03 07:39:31;;;;;;;0.40;0.40;;;;;;;19.80;44.00;99855.25;5054120;28;20041;-64
2023/06/03 07:42:20;;;;;;;0.55;0.55;;;;;;;19.89;43.94;99862.69;5053742;28;20055;-63
2023/06/03 07:45:00;;;;;;;0.47;0.47;;;;;;;19.97;44.02;99855.47;5054956;28;20064;-64
2023/06/03 07:47:29;;;;;;;6.72;2.05;;;;;;;20.07;44.69;99861.19;5054935;28;20123;-64
2023/06/03 07:50:00;;;;;;;0.50;0.50;;;;;;;20.19;44.62;99855.53;5054691;28;20107;-65
2023/06/03 07:52:36;;;;;;;0.50;0.50;;;;;;;20.30;44.56;99843.06;5054738;28;20048;-63
2023/06/03 07:55:08;;;;;;;0.50;0.50;;;;;;;20.38;44.05;99847.94;5054911;28;20041;-64
2023/06/03 07:57:46;;;;;;;0.82;0.82;;;;;;;20.35;43.75;99845.47;5054501;28;20053;-63
2023/06/03 08:00:17;;;;;;;0.60;0.60;;;;;;;20.38;43.39;99858.31;5054905;28;20047;-63
2023/06/03 08:02:46;;;;;;;0.47;0.47;;;;;;;20.31;43.65;99855.13;5054107;28;20053;-64
2023/06/03 08:05:17;;;;;;;0.40;0.40;;;;;;;20.39;43.99;99862.63;5054822;28;20502;-64
2023/06/03 08:07:46;;;;;;;0.50;0.50;;;;;;;20.42;43.77;99857.31;5054682;28;20075;-64
2023/06/03 08:10:23;;;;;;;0.85;0.57;;;;;;;20.54;44.04;99852.50;5054304;28;20483;-64
2023/06/03 08:12:54;;;;;;;0.90;0.80;;;;;;;20.39;44.18;99826.31;5054582;28;20376;-64
2023/06/03 08:15:31;;;;;;;0.93;0.77;;;;;;;20.42;43.63;99831.41;5054198;28;20075;-64
2023/06/03 08:18:00;;;;;;;1.60;1.50;;;;;;;20.67;43.75;99860.66;5054524;28;20049;-64
2023/06/03 08:20:30;;;;;;;0.65;0.65;;;;;;;20.52;44.06;99858.66;5054057;28;20479;-64
2023/06/03 08:22:59;;;;;;;0.40;0.40;;;;;;;20.68;44.13;99858.00;5054142;28;20044;-64
2023/06/03 08:25:28;;;;;;;0.45;0.40;;;;;;;21.00;43.80;99858.47;5054389;28;20049;-64
2023/06/03 08:27:58;;;;;;;1.00;0.93;;;;;;;21.02;43.20;99862.69;5054013;28;20059;-63
2023/06/03 08:30:27;;;;;;;0.52;0.52;;;;;;;21.08;42.66;99859.91;5053834;28;20344;-63
2023/06/03 08:32:56;;;;;;;0.73;0.73;;;;;;;21.16;43.23;99860.41;5054241;28;20045;-64
2023/06/03 08:35:25;;;;;;;0.50;0.50;;;;;;;21.09;43.06;99853.78;5054190;28;20048;-64
2023/06/03 08:37:54;;;;;;;1.17;0.63;;;;;;;21.20;43.14;99850.75;5053758;28;20059;-63
2023/06/03 08:40:25;;;;;;;0.55;0.55;;;;;;;21.43;42.55;99855.00;5054043;28;20415;-64
2023/06/03 08:43:03;;;;;;;0.55;0.55;;;;;;;21.35;42.29;99848.34;5053750;28;20049;-63
2023/06/03 08:45:41;;;;;;;0.32;0.32;;;;;;;21.36;42.47;99846.59;5053812;28;20049;-63
2023/06/03 08:48:21;;;;;;;3.85;0.70;;;;;;;21.20;42.04;99817.00;5054069;28;20056;-63
2023/06/03 08:50:50;;;;;;;0.40;0.40;;;;;;;21.58;41.66;99856.94;5053714;28;20375;-64
2023/06/03 08:53:19;;;;;;;0.60;0.60;;;;;;;21.58;42.34;99850.00;5053756;28;20106;-64
2023/06/03 08:55:53;;;;;;;0.80;0.80;;;;;;;21.96;42.77;99851.78;5052677;28;20098;-64
2023/06/03 08:58:26;;;;;;;0.30;0.30;;;;;;;21.77;41.88;99837.03;5053540;28;20049;-64
2023/06/03 09:01:00;;;;;;;0.85;0.85;;;;;;;21.68;41.63;99850.44;5053569;28;20506;-64
2023/06/03 09:03:29;;;;;;;0.45;0.45;;;;;;;21.58;41.55;99829.19;5053487;28;20438;-64
2023/06/03 09:06:01;;;;;;;0.95;0.75;;;;;;;21.80;41.71;99844.72;5053756;28;20049;-64
2023/06/03 09:08:32;;;;;;;0.55;0.55;;;;;;;21.87;41.66;99853.94;5052441;28;20522;-64
2023/06/03 09:11:02;;;;;;;0.50;0.50;;;;;;;22.30;42.25;99848.53;5053697;28;20037;-64
2023/06/03 09:13:32;;;;;;;;;;;;;;;22.32;41.42;99848.44;5054345;28;20465;-64
2023/06/03 09:16:04;;;;;;;2.72;0.80;;;;;;;22.57;41.95;99849.84;5053558;28;19950;-64
2023/06/03 09:18:33;;;;;;;0.40;0.40;;;;;;;22.75;41.76;99842.94;5053270;28;20068;-64
2023/06/03 09:21:02;;;;;;;0.80;0.80;;;;;;;22.68;41.02;99850.22;5053316;28;20045;-64
2023/06/03 09:23:31;;;;;;;;;;;;;;;22.71;40.59;99850.97;5053906;28;20360;-64
2023/06/03 09:26:00;;;;;;;0.60;0.60;;;;;;;22.84;40.52;99857.28;5053581;28;19925;-64
2023/06/03 09:28:30;;;;;;;0.68;0.68;;;;;;;22.55;40.09;99851.69;5052818;28;20053;-63
2023/06/03 09:31:01;;;;;;;0.32;0.32;;;;;;;22.51;40.24;99850.13;5053407;28;20498;-64
2023/06/03 09:33:32;;;;;;;0.73;0.60;;;;;;;22.31;40.46;99847.63;5053086;28;20051;-64
2023/06/03 09:36:10;;;;;;;2.10;0.93;;;;;;;22.15;40.83;99851.00;5053144;28;20094;-64
2023/06/03 09:38:50;;;;;;;4.38;1.67;;;;;;;22.26;40.78;99843.53;5056967;28;20402;-64
2023/06/03 09:41:20;;;;;;;1.23;1.13;;;;;;;22.18;41.33;99815.28;5057461;28;20098;-64
2023/06/03 09:44:01;;;;;;;0.70;0.70;;;;;;;22.70;42.59;99844.09;5057132;28;20499;-64
2023/06/03 09:46:32;;;;;;;1.05;0.88;;;;;;;22.94;41.69;99838.53;5057069;28;20220;-64
2023/06/03 09:49:12;;;;;;;1.23;0.85;;;;;;;23.10;41.86;99839.50;5057392;28;20052;-64
2023/06/03 09:51:49;;;;;;;0.40;0.40;;;;;;;23.25;41.00;99837.91;5057060;28;20057;-64
2023/06/03 09:54:20;;;;;;;0.65;0.57;;;;;;;23.39;40.48;99851.09;5056976;28;20403;-64
2023/06/03 09:56:50;;;;;;;0.50;0.50;;;;;;;23.41;39.93;99843.19;5057132;28;20399;-64
2023/06/03 09:59:21;;;;;;;0.68;0.68;;;;;;;23.49;40.32;99841.06;5055891;28;20537;-64
2023/06/03 10:01:53;;;;;;;0.50;0.50;;;;;;;23.54;40.24;99852.09;5056832;28;20057;-64
2023/06/03 10:04:23;;;;;;;0.93;0.90;;;;;;;23.44;39.65;99846.50;5056681;28;20041;-64
2023/06/03 10:07:09;;;;;;;0.70;0.70;;;;;;;23.45;39.72;99842.97;5057385;28;20053;-64
2023/06/03 10:09:39;;;;;;;6.97;1.75;;;;;;;23.51;39.29;99829.63;5056669;28;20073;-64
2023/06/03 10:12:10;;;;;;;0.50;0.50;;;;;;;23.80;39.84;99841.97;5056928;28;20087;-65
2023/06/03 10:14:46;;;;;;;0.82;0.63;;;;;;;24.00;40.01;99844.41;5056610;28;20053;-65
2023/06/03 10:17:18;;;;;;;0.70;0.70;;;;;;;23.93;39.24;99837.81;5056479;28;20053;-64
2023/06/03 10:19:47;;;;;;;0.50;0.50;;;;;;;23.82;40.21;99839.31;5056579;28;20041;-64
2023/06/03 10:22:18;;;;;;;1.25;1.15;;;;;;;23.50;40.72;99837.50;5056215;28;20132;-65
2023/06/03 10:24:48;;;;;;;0.43;0.43;;;;;;;23.10;40.68;99833.44;5057246;28;20041;-64
2023/06/03 10:27:19;;;;;;;3.03;0.77;;;;;;;22.82;40.68;99838.31;5056245;28;20053;-64
2023/06/03 10:29:52;;;;;;;1.08;0.93;;;;;;;22.61;40.83;99841.00;5056615;28;20053;-64
2023/06/03 10:32:24;;;;;;;1.13;1.05;;;;;;;22.36;41.15;99845.63;5056263;28;20545;-64
2023/06/03 10:34:55;;;;;;;0.60;0.60;;;;;;;22.22;42.67;99848.00;5056664;28;20049;-65
2023/06/03 10:37:26;;;;;;;1.10;1.05;;;;;;;22.06;43.72;99825.38;5056156;28;20057;-64
2023/06/03 10:39:56;;;;;;;0.43;0.43;;;;;;;22.21;43.93;99830.75;5056312;28;20048;-64
2023/06/03 10:42:26;;;;;;;0.60;0.60;;;;;;;22.35;43.87;99833.53;5056101;28;20045;-64
2023/06/03 10:44:55;;;;;;;0.73;0.70;;;;;;;22.39;44.14;99840.28;5055956;28;20498;-64
2023/06/03 10:47:29;;;;;;;0.52;0.52;;;;;;;22.85;44.05;99839.00;5055970;28;20052;-64
2023/06/03 10:50:05;;;;;;;0.65;0.65;;;;;;;23.23;42.93;99829.28;5054649;28;20128;-64
2023/06/03 10:52:56;;;;;;;1.25;1.15;;;;;;;23.22;41.89;99822.41;5055712;28;20060;-64
2023/06/03 10:55:35;;;;;;;0.73;0.70;;;;;;;23.10;41.55;99829.09;5056006;28;20063;-64
2023/06/03 10:58:10;;;;;;;0.75;0.60;;;;;;;23.09;41.30;99821.31;5055732;28;20053;-65
2023/06/03 11:00:55;;;;;;;1.17;0.95;;;;;;;23.57;42.38;99834.53;5055571;28;20511;-65
2023/06/03 11:03:26;;;;;;;0.68;0.68;;;;;;;23.87;41.89;99832.91;5054598;28;20581;-65
2023/06/03 11:06:16;;;;;;;0.70;0.70;;;;;;;24.12;41.84;99826.44;5055645;28;20463;-65
2023/06/03 11:09:01;;;;;;;0.50;0.50;;;;;;;24.29;40.84;99824.59;5055339;28;20040;-65
2023/06/03 11:11:55;;;;;;;0.60;0.60;;;;;;;24.37;40.05;99822.44;5055497;28;20487;-65
2023/06/03 11:14:50;;;;;;;0.40;0.40;;;;;;;24.17;39.49;99832.25;5055391;28;20060;-65
2023/06/03 11:17:19;;;;;;;0.40;0.40;;;;;;;24.14;39.49;99815.00;5055646;28;20053;-65
2023/06/03 11:19:50;;;;;;;0.82;0.80;;;;;;;24.06;38.66;99822.38;5055445;28;20417;-65
2023/06/03 11:22:41;;;;;;;1.27;0.77;;;;;;;24.08;38.47;99822.31;5055453;28;20398;-64
2023/06/03 11:25:27;;;;;;;2.80;1.10;;;;;;;24.20;38.85;99819.91;5055271;28;20053;-65
2023/06/03 11:28:34;;;;;;;1.30;0.85;;;;;;;24.22;38.89;99811.97;5053919;28;20056;-65
2023/06/03 11:31:06;;;;;;;0.47;0.47;;;;;;;24.51;39.06;99813.81;5055161;28;20132;-65
2023/06/03 11:33:37;;;;;;;0.52;0.52;;;;;;;24.61;38.35;99820.22;5053928;28;20067;-66
2023/06/03 11:36:27;;;;;;;1.30;1.20;;;;;;;24.15;38.01;99821.06;5054991;28;20106;-65
2023/06/03 11:39:02;;;;;;;2.90;1.05;;;;;;;24.32;38.48;99826.22;5053886;28;20060;-64
2023/06/03 11:41:53;;;;;;;0.88;0.85;;;;;;;24.15;38.15;99824.50;5054921;28;20041;-65
2023/06/03 11:44:22;;;;;;;0.60;0.60;;;;;;;23.95;37.60;99819.47;5055181;28;20122;-66
2023/06/03 11:46:54;;;;;;;0.75;0.75;;;;;;;24.05;37.88;99817.22;5054828;28;20036;-65
2023/06/03 11:49:23;;;;;;;0.90;0.90;;;;;;;24.27;37.90;99807.34;5054769;28;20053;-64
2023/06/03 11:51:57;;;;;;;0.55;0.50;;;;;;;24.35;38.46;99815.59;5054795;28;20033;-65
2023/06/03 11:54:28;;;;;;;0.50;0.50;;;;;;;23.90;38.66;99814.50;5054628;28;20095;-65
2023/06/03 11:56:58;;;;;;;0.77;0.60;;;;;;;23.31;38.93;99811.53;5054646;28;20073;-65